sensor_id;sensor_type;location;lat;lon;timestamp;P1;durP1;ratioP1;P2;durP2;ratioP2
43933;SDS011;59081;42.706;23.306;2022-09-29T00:00:53;4.55;;;1.65;;
43933;SDS011;59081;42.706;23.306;2022-09-29T00:03:19;3.42;;;1.83;;
43933;SDS011;59081;42.706;23.306;2022-09-29T00:05:53;6.72;;;2.20;;
43933;SDS011;59081;42.706;23.306;2022-09-29T00:08:27;4.85;;;1.83;;
43933;SDS011;59081;42.706;23.306;2022-09-29T00:10:58;6.63;;;1.92;;
43933;SDS011;59081;42.706;23.306;2022-09-29T00:13:27;3.90;;;2.03;;
43933;SDS011;59081;42.706;23.306;2022-09-29T00:15:59;5.78;;;1.80;;
43933;SDS011;59081;42.706;23.306;2022-09-29T00:18:26;4.40;;;2.20;;
43933;SDS011;59081;42.706;23.306;2022-09-29T00:20:59;3.70;;;1.98;;
43933;SDS011;59081;42.706;23.306;2022-09-29T00:23:30;2.80;;;2.08;;
43933;SDS011;59081;42.706;23.306;2022-09-29T00:26:02;4.55;;;2.13;;
43933;SDS011;59081;42.706;23.306;2022-09-29T00:28:39;3.90;;;2.38;;
43933;SDS011;59081;42.706;23.306;2022-09-29T00:33:36;3.42;;;2.22;;
43933;SDS011;59081;42.706;23.306;2022-09-29T00:36:06;7.00;;;2.72;;
43933;SDS011;59081;42.706;23.306;2022-09-29T00:38:40;4.93;;;2.30;;
43933;SDS011;59081;42.706;23.306;2022-09-29T00:41:07;3.78;;;2.35;;
43933;SDS011;59081;42.706;23.306;2022-09-29T00:43:48;7.20;;;2.75;;
43933;SDS011;59081;42.706;23.306;2022-09-29T00:46:16;5.38;;;2.30;;
43933;SDS011;59081;42.706;23.306;2022-09-29T00:48:47;7.93;;;3.00;;
43933;SDS011;59081;42.706;23.306;2022-09-29T00:51:14;7.40;;;2.60;;
43933;SDS011;59081;42.706;23.306;2022-09-29T00:53:42;3.25;;;2.45;;
43933;SDS011;59081;42.706;23.306;2022-09-29T00:56:12;3.50;;;2.08;;
43933;SDS011;59081;42.706;23.306;2022-09-29T00:58:42;7.13;;;2.42;;
43933;SDS011;59081;42.706;23.306;2022-09-29T01:01:19;4.47;;;2.35;;
43933;SDS011;59081;42.706;23.306;2022-09-29T01:03:49;6.90;;;2.30;;
43933;SDS011;59081;42.706;23.306;2022-09-29T01:06:24;6.43;;;2.75;;
43933;SDS011;59081;42.706;23.306;2022-09-29T01:09:00;5.63;;;2.03;;
43933;SDS011;59081;42.706;23.306;2022-09-29T01:11:28;6.50;;;2.60;;
43933;SDS011;59081;42.706;23.306;2022-09-29T01:13:57;7.75;;;2.70;;
43933;SDS011;59081;42.706;23.306;2022-09-29T01:16:32;7.57;;;3.15;;
43933;SDS011;59081;42.706;23.306;2022-09-29T01:18:59;5.50;;;2.42;;
43933;SDS011;59081;42.706;23.306;2022-09-29T01:27:17;10.60;;;2.10;;
43933;SDS011;59081;42.706;23.306;2022-09-29T01:38:50;8.70;;;2.80;;
43933;SDS011;59081;42.706;23.306;2022-09-29T01:47:49;11.38;;;4.40;;
43933;SDS011;59081;42.706;23.306;2022-09-29T01:50:24;10.27;;;3.60;;
43933;SDS011;59081;42.706;23.306;2022-09-29T01:55:29;6.03;;;3.58;;
43933;SDS011;59081;42.706;23.306;2022-09-29T01:58:04;8.85;;;3.10;;
43933;SDS011;59081;42.706;23.306;2022-09-29T02:00:57;5.60;;;3.70;;
43933;SDS011;59081;42.706;23.306;2022-09-29T02:03:30;8.88;;;3.60;;
43933;SDS011;59081;42.706;23.306;2022-09-29T02:06:07;10.27;;;3.67;;
43933;SDS011;59081;42.706;23.306;2022-09-29T02:08:37;6.22;;;3.70;;
43933;SDS011;59081;42.706;23.306;2022-09-29T02:11:08;9.93;;;3.53;;
43933;SDS011;59081;42.706;23.306;2022-09-29T02:16:17;6.43;;;3.97;;
43933;SDS011;59081;42.706;23.306;2022-09-29T02:21:39;8.88;;;3.47;;
43933;SDS011;59081;42.706;23.306;2022-09-29T02:24:09;7.97;;;2.78;;
43933;SDS011;59081;42.706;23.306;2022-09-29T02:26:38;10.20;;;3.17;;
43933;SDS011;59081;42.706;23.306;2022-09-29T02:29:10;14.85;;;3.25;;
43933;SDS011;59081;42.706;23.306;2022-09-29T02:31:39;5.68;;;3.15;;
43933;SDS011;59081;42.706;23.306;2022-09-29T02:34:08;5.40;;;2.78;;
43933;SDS011;59081;42.706;23.306;2022-09-29T02:36:49;6.47;;;2.78;;
43933;SDS011;59081;42.706;23.306;2022-09-29T03:02:12;10.18;;;3.72;;
43933;SDS011;59081;42.706;23.306;2022-09-29T03:04:42;6.45;;;3.25;;
43933;SDS011;59081;42.706;23.306;2022-09-29T03:07:08;5.45;;;3.58;;
43933;SDS011;59081;42.706;23.306;2022-09-29T03:09:37;7.63;;;3.42;;
43933;SDS011;59081;42.706;23.306;2022-09-29T03:12:03;6.18;;;3.42;;
43933;SDS011;59081;42.706;23.306;2022-09-29T03:14:29;8.73;;;3.60;;
43933;SDS011;59081;42.706;23.306;2022-09-29T03:16:54;9.82;;;3.75;;
43933;SDS011;59081;42.706;23.306;2022-09-29T03:19:20;5.60;;;3.53;;
43933;SDS011;59081;42.706;23.306;2022-09-29T03:21:45;11.98;;;3.90;;
43933;SDS011;59081;42.706;23.306;2022-09-29T03:24:11;5.28;;;3.42;;
43933;SDS011;59081;42.706;23.306;2022-09-29T03:26:40;13.07;;;4.20;;
43933;SDS011;59081;42.706;23.306;2022-09-29T03:29:08;7.03;;;3.90;;
43933;SDS011;59081;42.706;23.306;2022-09-29T03:31:40;15.68;;;4.38;;
43933;SDS011;59081;42.706;23.306;2022-09-29T03:34:05;8.35;;;3.65;;
43933;SDS011;59081;42.706;23.306;2022-09-29T03:36:31;10.13;;;4.60;;
43933;SDS011;59081;42.706;23.306;2022-09-29T03:38:57;8.60;;;4.05;;
43933;SDS011;59081;42.706;23.306;2022-09-29T03:41:25;7.00;;;4.72;;
43933;SDS011;59081;42.706;23.306;2022-09-29T03:43:51;8.23;;;3.97;;
43933;SDS011;59081;42.706;23.306;2022-09-29T03:46:16;6.13;;;3.63;;
43933;SDS011;59081;42.706;23.306;2022-09-29T03:48:42;10.80;;;4.03;;
43933;SDS011;59081;42.706;23.306;2022-09-29T03:51:08;19.02;;;4.32;;
43933;SDS011;59081;42.706;23.306;2022-09-29T03:53:37;5.65;;;3.00;;
43933;SDS011;59081;42.706;23.306;2022-09-29T03:56:02;8.13;;;3.65;;
43933;SDS011;59081;42.706;23.306;2022-09-29T03:58:29;8.35;;;3.42;;
43933;SDS011;59081;42.706;23.306;2022-09-29T04:00:58;10.82;;;3.67;;
43933;SDS011;59081;42.706;23.306;2022-09-29T04:03:23;9.90;;;3.92;;
43933;SDS011;59081;42.706;23.306;2022-09-29T04:05:49;8.85;;;3.78;;
43933;SDS011;59081;42.706;23.306;2022-09-29T04:08:15;7.72;;;3.78;;
43933;SDS011;59081;42.706;23.306;2022-09-29T04:10:41;9.48;;;3.92;;
43933;SDS011;59081;42.706;23.306;2022-09-29T04:13:07;9.82;;;4.07;;
43933;SDS011;59081;42.706;23.306;2022-09-29T04:15:35;8.10;;;3.70;;
43933;SDS011;59081;42.706;23.306;2022-09-29T04:18:03;12.02;;;3.45;;
43933;SDS011;59081;42.706;23.306;2022-09-29T04:20:33;12.55;;;5.07;;
43933;SDS011;59081;42.706;23.306;2022-09-29T04:22:58;21.95;;;12.82;;
43933;SDS011;59081;42.706;23.306;2022-09-29T04:25:25;15.32;;;7.88;;
43933;SDS011;59081;42.706;23.306;2022-09-29T04:27:52;16.20;;;6.38;;
43933;SDS011;59081;42.706;23.306;2022-09-29T04:30:18;8.93;;;5.50;;
43933;SDS011;59081;42.706;23.306;2022-09-29T04:32:43;15.82;;;6.20;;
43933;SDS011;59081;42.706;23.306;2022-09-29T04:35:09;12.10;;;7.32;;
43933;SDS011;59081;42.706;23.306;2022-09-29T04:37:35;22.73;;;7.20;;
43933;SDS011;59081;42.706;23.306;2022-09-29T04:40:01;29.88;;;16.67;;
43933;SDS011;59081;42.706;23.306;2022-09-29T04:42:27;12.75;;;7.00;;
43933;SDS011;59081;42.706;23.306;2022-09-29T04:44:53;9.70;;;4.90;;
43933;SDS011;59081;42.706;23.306;2022-09-29T04:47:21;12.98;;;5.53;;
43933;SDS011;59081;42.706;23.306;2022-09-29T04:49:47;15.55;;;6.25;;
43933;SDS011;59081;42.706;23.306;2022-09-29T04:52:13;15.80;;;6.07;;
43933;SDS011;59081;42.706;23.306;2022-09-29T04:54:38;13.38;;;6.63;;
43933;SDS011;59081;42.706;23.306;2022-09-29T04:57:05;22.35;;;6.88;;
43933;SDS011;59081;42.706;23.306;2022-09-29T04:59:31;16.83;;;7.15;;
43933;SDS011;59081;42.706;23.306;2022-09-29T05:01:57;13.57;;;5.10;;
43933;SDS011;59081;42.706;23.306;2022-09-29T05:04:23;12.98;;;5.55;;
43933;SDS011;59081;42.706;23.306;2022-09-29T05:06:51;11.20;;;5.70;;
43933;SDS011;59081;42.706;23.306;2022-09-29T05:09:20;13.63;;;5.95;;
43933;SDS011;59081;42.706;23.306;2022-09-29T05:11:49;16.52;;;5.35;;
43933;SDS011;59081;42.706;23.306;2022-09-29T05:14:17;12.18;;;5.43;;
43933;SDS011;59081;42.706;23.306;2022-09-29T05:16:43;9.27;;;5.25;;
43933;SDS011;59081;42.706;23.306;2022-09-29T05:19:08;10.13;;;5.18;;
43933;SDS011;59081;42.706;23.306;2022-09-29T05:21:35;12.18;;;5.15;;
43933;SDS011;59081;42.706;23.306;2022-09-29T05:24:00;17.90;;;5.10;;
43933;SDS011;59081;42.706;23.306;2022-09-29T05:26:28;21.05;;;6.03;;
43933;SDS011;59081;42.706;23.306;2022-09-29T05:28:54;16.33;;;5.38;;
43933;SDS011;59081;42.706;23.306;2022-09-29T05:31:19;8.68;;;4.10;;
43933;SDS011;59081;42.706;23.306;2022-09-29T05:33:45;9.60;;;4.25;;
43933;SDS011;59081;42.706;23.306;2022-09-29T05:36:11;11.50;;;4.30;;
43933;SDS011;59081;42.706;23.306;2022-09-29T05:38:37;11.10;;;4.10;;
43933;SDS011;59081;42.706;23.306;2022-09-29T05:41:08;10.00;;;4.40;;
43933;SDS011;59081;42.706;23.306;2022-09-29T05:43:35;19.60;;;4.75;;
43933;SDS011;59081;42.706;23.306;2022-09-29T05:46:01;7.55;;;3.90;;
43933;SDS011;59081;42.706;23.306;2022-09-29T05:48:29;10.90;;;3.65;;
43933;SDS011;59081;42.706;23.306;2022-09-29T05:50:55;18.17;;;4.72;;
43933;SDS011;59081;42.706;23.306;2022-09-29T05:53:21;6.75;;;3.67;;
43933;SDS011;59081;42.706;23.306;2022-09-29T05:55:47;10.82;;;3.80;;
43933;SDS011;59081;42.706;23.306;2022-09-29T05:58:13;15.63;;;3.83;;
43933;SDS011;59081;42.706;23.306;2022-09-29T06:00:38;5.97;;;3.95;;
43933;SDS011;59081;42.706;23.306;2022-09-29T06:03:04;11.95;;;4.15;;
43933;SDS011;59081;42.706;23.306;2022-09-29T06:05:32;10.40;;;3.80;;
43933;SDS011;59081;42.706;23.306;2022-09-29T06:08:02;11.32;;;4.78;;
43933;SDS011;59081;42.706;23.306;2022-09-29T06:10:47;15.50;;;5.20;;
43933;SDS011;59081;42.706;23.306;2022-09-29T06:13:13;13.48;;;4.80;;
43933;SDS011;59081;42.706;23.306;2022-09-29T06:15:38;22.77;;;8.10;;
43933;SDS011;59081;42.706;23.306;2022-09-29T06:18:04;9.10;;;5.20;;
43933;SDS011;59081;42.706;23.306;2022-09-29T06:20:29;14.57;;;5.25;;
43933;SDS011;59081;42.706;23.306;2022-09-29T06:22:57;12.40;;;5.75;;
43933;SDS011;59081;42.706;23.306;2022-09-29T06:25:22;9.90;;;4.57;;
43933;SDS011;59081;42.706;23.306;2022-09-29T06:27:48;18.20;;;5.07;;
43933;SDS011;59081;42.706;23.306;2022-09-29T06:30:13;11.40;;;5.82;;
43933;SDS011;59081;42.706;23.306;2022-09-29T06:32:39;23.30;;;5.78;;
43933;SDS011;59081;42.706;23.306;2022-09-29T06:35:05;13.32;;;5.07;;
43933;SDS011;59081;42.706;23.306;2022-09-29T06:37:49;13.05;;;3.83;;
43933;SDS011;59081;42.706;23.306;2022-09-29T06:40:17;7.63;;;3.30;;
43933;SDS011;59081;42.706;23.306;2022-09-29T06:42:45;9.15;;;3.72;;
43933;SDS011;59081;42.706;23.306;2022-09-29T06:45:10;10.35;;;3.85;;
43933;SDS011;59081;42.706;23.306;2022-09-29T06:47:36;9.48;;;3.97;;
43933;SDS011;59081;42.706;23.306;2022-09-29T06:50:02;10.70;;;4.20;;
43933;SDS011;59081;42.706;23.306;2022-09-29T06:52:27;9.40;;;3.83;;
43933;SDS011;59081;42.706;23.306;2022-09-29T06:54:53;19.17;;;5.40;;
43933;SDS011;59081;42.706;23.306;2022-09-29T06:57:19;13.07;;;4.88;;
43933;SDS011;59081;42.706;23.306;2022-09-29T06:59:44;11.25;;;5.45;;
43933;SDS011;59081;42.706;23.306;2022-09-29T07:02:10;17.52;;;4.32;;
43933;SDS011;59081;42.706;23.306;2022-09-29T07:04:36;9.73;;;3.55;;
43933;SDS011;59081;42.706;23.306;2022-09-29T07:07:02;13.70;;;4.05;;
43933;SDS011;59081;42.706;23.306;2022-09-29T07:09:27;22.40;;;5.05;;
43933;SDS011;59081;42.706;23.306;2022-09-29T07:11:53;16.02;;;5.20;;
43933;SDS011;59081;42.706;23.306;2022-09-29T07:14:19;9.82;;;5.03;;
43933;SDS011;59081;42.706;23.306;2022-09-29T07:16:49;14.25;;;4.55;;
43933;SDS011;59081;42.706;23.306;2022-09-29T07:19:16;14.85;;;4.50;;
43933;SDS011;59081;42.706;23.306;2022-09-29T07:21:43;10.00;;;4.18;;
43933;SDS011;59081;42.706;23.306;2022-09-29T07:24:09;9.27;;;4.28;;
43933;SDS011;59081;42.706;23.306;2022-09-29T07:26:35;14.50;;;4.72;;
43933;SDS011;59081;42.706;23.306;2022-09-29T07:29:01;19.80;;;4.60;;
43933;SDS011;59081;42.706;23.306;2022-09-29T07:31:27;12.90;;;3.42;;
43933;SDS011;59081;42.706;23.306;2022-09-29T07:33:52;10.10;;;3.58;;
43933;SDS011;59081;42.706;23.306;2022-09-29T07:36:20;11.75;;;3.50;;
43933;SDS011;59081;42.706;23.306;2022-09-29T07:38:48;14.88;;;4.13;;
43933;SDS011;59081;42.706;23.306;2022-09-29T07:41:16;12.38;;;3.67;;
43933;SDS011;59081;42.706;23.306;2022-09-29T07:43:43;8.27;;;3.10;;
43933;SDS011;59081;42.706;23.306;2022-09-29T07:46:08;7.82;;;2.97;;
43933;SDS011;59081;42.706;23.306;2022-09-29T07:48:35;7.82;;;3.50;;
43933;SDS011;59081;42.706;23.306;2022-09-29T07:51:02;7.93;;;3.28;;
43933;SDS011;59081;42.706;23.306;2022-09-29T07:53:33;9.02;;;3.28;;
43933;SDS011;59081;42.706;23.306;2022-09-29T07:56:04;10.70;;;4.38;;
43933;SDS011;59081;42.706;23.306;2022-09-29T07:58:35;11.68;;;4.15;;
43933;SDS011;59081;42.706;23.306;2022-09-29T08:01:02;11.25;;;3.95;;
43933;SDS011;59081;42.706;23.306;2022-09-29T08:03:30;10.95;;;4.32;;
43933;SDS011;59081;42.706;23.306;2022-09-29T08:05:56;10.95;;;3.95;;
43933;SDS011;59081;42.706;23.306;2022-09-29T08:08:23;6.25;;;3.88;;
43933;SDS011;59081;42.706;23.306;2022-09-29T08:10:49;6.35;;;3.30;;
43933;SDS011;59081;42.706;23.306;2022-09-29T08:13:15;14.00;;;3.67;;
43933;SDS011;59081;42.706;23.306;2022-09-29T08:15:41;7.90;;;2.30;;
43933;SDS011;59081;42.706;23.306;2022-09-29T08:18:06;9.90;;;3.38;;
43933;SDS011;59081;42.706;23.306;2022-09-29T08:20:32;9.07;;;2.88;;
43933;SDS011;59081;42.706;23.306;2022-09-29T08:22:59;12.95;;;2.95;;
43933;SDS011;59081;42.706;23.306;2022-09-29T08:25:25;11.95;;;3.38;;
43933;SDS011;59081;42.706;23.306;2022-09-29T08:27:51;9.98;;;3.67;;
43933;SDS011;59081;42.706;23.306;2022-09-29T08:30:17;16.00;;;4.00;;
43933;SDS011;59081;42.706;23.306;2022-09-29T08:32:43;11.32;;;3.35;;
43933;SDS011;59081;42.706;23.306;2022-09-29T08:35:14;10.15;;;2.90;;
43933;SDS011;59081;42.706;23.306;2022-09-29T08:37:40;5.95;;;2.58;;
43933;SDS011;59081;42.706;23.306;2022-09-29T08:40:05;6.32;;;2.42;;
43933;SDS011;59081;42.706;23.306;2022-09-29T08:45:45;6.43;;;2.58;;
43933;SDS011;59081;42.706;23.306;2022-09-29T08:48:19;15.05;;;3.35;;
43933;SDS011;59081;42.706;23.306;2022-09-29T08:50:54;5.88;;;2.67;;
43933;SDS011;59081;42.706;23.306;2022-09-29T08:53:26;12.00;;;2.70;;
43933;SDS011;59081;42.706;23.306;2022-09-29T08:56:12;4.03;;;2.30;;
43933;SDS011;59081;42.706;23.306;2022-09-29T08:58:41;9.48;;;3.33;;
43933;SDS011;59081;42.706;23.306;2022-09-29T09:06:22;7.35;;;2.70;;
43933;SDS011;59081;42.706;23.306;2022-09-29T09:09:01;15.32;;;3.00;;
43933;SDS011;59081;42.706;23.306;2022-09-29T09:20:47;7.03;;;2.00;;
43933;SDS011;59081;42.706;23.306;2022-09-29T09:23:05;4.10;;;1.58;;
43933;SDS011;59081;42.706;23.306;2022-09-29T09:25:56;12.85;;;2.40;;
43933;SDS011;59081;42.706;23.306;2022-09-29T09:36:17;7.75;;;2.42;;
43933;SDS011;59081;42.706;23.306;2022-09-29T09:41:50;12.27;;;2.17;;
43933;SDS011;59081;42.706;23.306;2022-09-29T09:46:51;5.43;;;2.28;;
43933;SDS011;59081;42.706;23.306;2022-09-29T09:49:28;7.57;;;2.00;;
43933;SDS011;59081;42.706;23.306;2022-09-29T09:54:38;6.78;;;1.73;;
43933;SDS011;59081;42.706;23.306;2022-09-29T10:02:55;4.57;;;1.60;;
43933;SDS011;59081;42.706;23.306;2022-09-29T10:05:36;9.73;;;2.38;;
43933;SDS011;59081;42.706;23.306;2022-09-29T10:08:21;6.38;;;2.10;;
43933;SDS011;59081;42.706;23.306;2022-09-29T10:10:49;23.38;;;3.65;;
43933;SDS011;59081;42.706;23.306;2022-09-29T10:13:16;21.90;;;3.13;;
43933;SDS011;59081;42.706;23.306;2022-09-29T10:18:25;3.05;;;1.40;;
43933;SDS011;59081;42.706;23.306;2022-09-29T10:20:55;7.43;;;2.13;;
43933;SDS011;59081;42.706;23.306;2022-09-29T10:23:25;10.55;;;1.90;;
43933;SDS011;59081;42.706;23.306;2022-09-29T10:26:06;13.20;;;1.88;;
43933;SDS011;59081;42.706;23.306;2022-09-29T10:28:39;3.10;;;1.45;;
43933;SDS011;59081;42.706;23.306;2022-09-29T10:36:49;6.35;;;1.63;;
43933;SDS011;59081;42.706;23.306;2022-09-29T10:42:23;6.82;;;1.70;;
43933;SDS011;59081;42.706;23.306;2022-09-29T10:45:19;5.28;;;1.73;;
43933;SDS011;59081;42.706;23.306;2022-09-29T10:48:06;6.53;;;2.13;;
43933;SDS011;59081;42.706;23.306;2022-09-29T10:50:47;4.15;;;1.52;;
43933;SDS011;59081;42.706;23.306;2022-09-29T10:53:24;4.45;;;1.80;;
43933;SDS011;59081;42.706;23.306;2022-09-29T10:55:53;8.73;;;2.30;;
43933;SDS011;59081;42.706;23.306;2022-09-29T11:03:32;3.53;;;1.67;;
43933;SDS011;59081;42.706;23.306;2022-09-29T11:06:04;13.38;;;2.13;;
43933;SDS011;59081;42.706;23.306;2022-09-29T11:08:32;7.10;;;2.15;;
43933;SDS011;59081;42.706;23.306;2022-09-29T11:11:02;7.88;;;1.80;;
43933;SDS011;59081;42.706;23.306;2022-09-29T11:13:34;8.40;;;2.13;;
43933;SDS011;59081;42.706;23.306;2022-09-29T11:16:10;3.72;;;1.83;;
43933;SDS011;59081;42.706;23.306;2022-09-29T11:18:39;4.05;;;1.80;;
43933;SDS011;59081;42.706;23.306;2022-09-29T11:21:13;4.47;;;1.30;;
43933;SDS011;59081;42.706;23.306;2022-09-29T11:23:46;6.55;;;1.83;;
43933;SDS011;59081;42.706;23.306;2022-09-29T11:26:22;2.35;;;1.02;;
43933;SDS011;59081;42.706;23.306;2022-09-29T11:31:37;2.85;;;1.27;;
43933;SDS011;59081;42.706;23.306;2022-09-29T11:34:37;2.78;;;1.20;;
43933;SDS011;59081;42.706;23.306;2022-09-29T11:40:19;2.53;;;1.48;;
43933;SDS011;59081;42.706;23.306;2022-09-29T11:45:55;7.68;;;3.15;;
43933;SDS011;59081;42.706;23.306;2022-09-29T11:57:32;1.23;;;0.95;;
43933;SDS011;59081;42.706;23.306;2022-09-29T12:00:20;3.53;;;1.17;;
43933;SDS011;59081;42.706;23.306;2022-09-29T12:02:58;2.80;;;1.50;;
43933;SDS011;59081;42.706;23.306;2022-09-29T12:14:04;2.47;;;1.48;;
43933;SDS011;59081;42.706;23.306;2022-09-29T12:16:32;5.00;;;1.58;;
43933;SDS011;59081;42.706;23.306;2022-09-29T12:19:04;3.88;;;2.95;;
43933;SDS011;59081;42.706;23.306;2022-09-29T12:26:59;5.13;;;1.95;;
43933;SDS011;59081;42.706;23.306;2022-09-29T12:32:31;7.95;;;1.30;;
43933;SDS011;59081;42.706;23.306;2022-09-29T12:35:08;2.17;;;1.30;;
43933;SDS011;59081;42.706;23.306;2022-09-29T12:37:46;2.67;;;1.52;;
43933;SDS011;59081;42.706;23.306;2022-09-29T12:40:23;3.85;;;0.90;;
43933;SDS011;59081;42.706;23.306;2022-09-29T12:48:41;4.38;;;1.83;;
43933;SDS011;59081;42.706;23.306;2022-09-29T12:51:29;3.00;;;1.20;;
43933;SDS011;59081;42.706;23.306;2022-09-29T12:56:49;5.22;;;1.60;;
43933;SDS011;59081;42.706;23.306;2022-09-29T13:07:57;6.75;;;1.30;;
43933;SDS011;59081;42.706;23.306;2022-09-29T13:13:43;3.08;;;1.20;;
43933;SDS011;59081;42.706;23.306;2022-09-29T13:19:17;7.85;;;1.40;;
43933;SDS011;59081;42.706;23.306;2022-09-29T13:27:21;5.10;;;1.73;;
43933;SDS011;59081;42.706;23.306;2022-09-29T13:30:04;5.55;;;1.95;;
43933;SDS011;59081;42.706;23.306;2022-09-29T13:32:57;13.38;;;1.80;;
43933;SDS011;59081;42.706;23.306;2022-09-29T13:35:37;14.50;;;3.10;;
43933;SDS011;59081;42.706;23.306;2022-09-29T13:38:06;3.90;;;1.40;;
43933;SDS011;59081;42.706;23.306;2022-09-29T13:40:37;5.72;;;1.65;;
43933;SDS011;59081;42.706;23.306;2022-09-29T13:43:03;3.72;;;1.80;;
43933;SDS011;59081;42.706;23.306;2022-09-29T13:47:59;3.88;;;1.92;;
43933;SDS011;59081;42.706;23.306;2022-09-29T13:50:45;10.43;;;2.00;;
43933;SDS011;59081;42.706;23.306;2022-09-29T13:55:51;6.82;;;2.50;;
43933;SDS011;59081;42.706;23.306;2022-09-29T13:58:22;5.43;;;1.90;;
43933;SDS011;59081;42.706;23.306;2022-09-29T14:00:49;3.90;;;1.70;;
43933;SDS011;59081;42.706;23.306;2022-09-29T14:03:32;2.75;;;1.50;;
43933;SDS011;59081;42.706;23.306;2022-09-29T14:08:34;5.93;;;1.73;;
43933;SDS011;59081;42.706;23.306;2022-09-29T14:11:05;1.88;;;1.45;;
43933;SDS011;59081;42.706;23.306;2022-09-29T14:19:07;4.22;;;1.30;;
43933;SDS011;59081;42.706;23.306;2022-09-29T14:21:53;3.60;;;1.70;;
43933;SDS011;59081;42.706;23.306;2022-09-29T14:38:19;7.93;;;1.65;;
43933;SDS011;59081;42.706;23.306;2022-09-29T14:46:06;4.75;;;1.80;;
43933;SDS011;59081;42.706;23.306;2022-09-29T14:51:55;10.40;;;1.67;;
43933;SDS011;59081;42.706;23.306;2022-09-29T14:54:38;6.32;;;2.28;;
43933;SDS011;59081;42.706;23.306;2022-09-29T15:02:24;3.75;;;2.60;;
43933;SDS011;59081;42.706;23.306;2022-09-29T15:04:55;3.92;;;2.47;;
43933;SDS011;59081;42.706;23.306;2022-09-29T15:07:42;4.40;;;2.33;;
43933;SDS011;59081;42.706;23.306;2022-09-29T15:10:24;8.18;;;3.75;;
43933;SDS011;59081;42.706;23.306;2022-09-29T15:12:51;6.25;;;3.35;;
43933;SDS011;59081;42.706;23.306;2022-09-29T15:15:38;7.45;;;2.28;;
43933;SDS011;59081;42.706;23.306;2022-09-29T15:26:17;12.60;;;5.85;;
43933;SDS011;59081;42.706;23.306;2022-09-29T15:28:44;6.60;;;3.92;;
43933;SDS011;59081;42.706;23.306;2022-09-29T15:31:18;9.98;;;4.35;;
43933;SDS011;59081;42.706;23.306;2022-09-29T15:33:51;13.32;;;4.63;;
43933;SDS011;59081;42.706;23.306;2022-09-29T15:36:22;10.68;;;4.63;;
43933;SDS011;59081;42.706;23.306;2022-09-29T15:38:50;9.30;;;4.60;;
43933;SDS011;59081;42.706;23.306;2022-09-29T15:41:19;9.73;;;5.72;;
43933;SDS011;59081;42.706;23.306;2022-09-29T15:43:56;10.93;;;5.57;;
43933;SDS011;59081;42.706;23.306;2022-09-29T15:51:28;12.57;;;4.82;;
43933;SDS011;59081;42.706;23.306;2022-09-29T15:53:54;6.32;;;3.90;;
43933;SDS011;59081;42.706;23.306;2022-09-29T15:56:25;9.63;;;4.15;;
43933;SDS011;59081;42.706;23.306;2022-09-29T15:58:53;7.50;;;3.72;;
43933;SDS011;59081;42.706;23.306;2022-09-29T16:01:21;14.43;;;7.35;;
43933;SDS011;59081;42.706;23.306;2022-09-29T16:03:50;12.60;;;7.20;;
43933;SDS011;59081;42.706;23.306;2022-09-29T16:06:33;16.83;;;10.65;;
43933;SDS011;59081;42.706;23.306;2022-09-29T16:09:02;20.63;;;6.55;;
43933;SDS011;59081;42.706;23.306;2022-09-29T16:11:35;11.73;;;6.18;;
43933;SDS011;59081;42.706;23.306;2022-09-29T16:14:09;12.80;;;5.70;;
43933;SDS011;59081;42.706;23.306;2022-09-29T16:16:58;8.10;;;4.53;;
43933;SDS011;59081;42.706;23.306;2022-09-29T16:19:25;10.77;;;5.25;;
43933;SDS011;59081;42.706;23.306;2022-09-29T16:21:59;14.00;;;7.18;;
43933;SDS011;59081;42.706;23.306;2022-09-29T16:24:34;4.45;;;2.85;;
43933;SDS011;59081;42.706;23.306;2022-09-29T16:27:01;11.32;;;4.07;;
43933;SDS011;59081;42.706;23.306;2022-09-29T16:29:30;8.05;;;4.82;;
43933;SDS011;59081;42.706;23.306;2022-09-29T16:31:57;16.25;;;4.95;;
43933;SDS011;59081;42.706;23.306;2022-09-29T16:34:26;8.35;;;4.10;;
43933;SDS011;59081;42.706;23.306;2022-09-29T16:37:03;13.85;;;5.18;;
43933;SDS011;59081;42.706;23.306;2022-09-29T16:39:42;12.68;;;7.18;;
43933;SDS011;59081;42.706;23.306;2022-09-29T16:42:21;12.00;;;6.25;;
43933;SDS011;59081;42.706;23.306;2022-09-29T16:44:51;9.15;;;5.47;;
43933;SDS011;59081;42.706;23.306;2022-09-29T16:47:28;9.23;;;5.93;;
43933;SDS011;59081;42.706;23.306;2022-09-29T16:49:57;8.20;;;5.50;;
43933;SDS011;59081;42.706;23.306;2022-09-29T16:52:33;8.18;;;4.70;;
43933;SDS011;59081;42.706;23.306;2022-09-29T16:57:54;13.20;;;5.53;;
43933;SDS011;59081;42.706;23.306;2022-09-29T17:00:25;7.97;;;4.93;;
43933;SDS011;59081;42.706;23.306;2022-09-29T17:02:53;10.00;;;4.63;;
43933;SDS011;59081;42.706;23.306;2022-09-29T17:05:21;8.70;;;4.15;;
43933;SDS011;59081;42.706;23.306;2022-09-29T17:08:04;12.40;;;4.03;;
43933;SDS011;59081;42.706;23.306;2022-09-29T17:10:45;10.13;;;5.00;;
43933;SDS011;59081;42.706;23.306;2022-09-29T17:13:11;7.82;;;4.30;;
43933;SDS011;59081;42.706;23.306;2022-09-29T17:15:38;6.38;;;3.58;;
43933;SDS011;59081;42.706;23.306;2022-09-29T17:18:25;8.88;;;5.25;;
43933;SDS011;59081;42.706;23.306;2022-09-29T17:20:55;8.15;;;3.78;;
43933;SDS011;59081;42.706;23.306;2022-09-29T17:23:24;7.40;;;3.10;;
43933;SDS011;59081;42.706;23.306;2022-09-29T17:25:53;12.88;;;4.47;;
43933;SDS011;59081;42.706;23.306;2022-09-29T17:28:40;10.20;;;4.60;;
43933;SDS011;59081;42.706;23.306;2022-09-29T17:31:07;8.60;;;4.13;;
43933;SDS011;59081;42.706;23.306;2022-09-29T17:33:39;8.18;;;4.25;;
43933;SDS011;59081;42.706;23.306;2022-09-29T17:36:09;7.22;;;4.85;;
43933;SDS011;59081;42.706;23.306;2022-09-29T17:38:38;8.38;;;4.80;;
43933;SDS011;59081;42.706;23.306;2022-09-29T17:41:05;10.05;;;6.40;;
43933;SDS011;59081;42.706;23.306;2022-09-29T17:43:32;17.23;;;8.75;;
43933;SDS011;59081;42.706;23.306;2022-09-29T17:46:01;13.57;;;7.43;;
43933;SDS011;59081;42.706;23.306;2022-09-29T17:48:27;14.02;;;7.82;;
43933;SDS011;59081;42.706;23.306;2022-09-29T17:50:54;14.32;;;8.40;;
43933;SDS011;59081;42.706;23.306;2022-09-29T17:53:23;16.55;;;8.20;;
43933;SDS011;59081;42.706;23.306;2022-09-29T17:55:50;10.35;;;5.82;;
43933;SDS011;59081;42.706;23.306;2022-09-29T17:58:23;11.75;;;7.10;;
43933;SDS011;59081;42.706;23.306;2022-09-29T18:00:51;11.98;;;6.40;;
43933;SDS011;59081;42.706;23.306;2022-09-29T18:03:23;14.10;;;7.28;;
43933;SDS011;59081;42.706;23.306;2022-09-29T18:05:50;9.95;;;6.93;;
43933;SDS011;59081;42.706;23.306;2022-09-29T18:08:20;17.85;;;7.43;;
43933;SDS011;59081;42.706;23.306;2022-09-29T18:10:54;12.82;;;6.43;;
43933;SDS011;59081;42.706;23.306;2022-09-29T18:13:28;13.57;;;8.35;;
43933;SDS011;59081;42.706;23.306;2022-09-29T18:15:58;13.95;;;7.35;;
43933;SDS011;59081;42.706;23.306;2022-09-29T18:18:25;17.27;;;8.45;;
43933;SDS011;59081;42.706;23.306;2022-09-29T18:20:51;11.15;;;6.90;;
43933;SDS011;59081;42.706;23.306;2022-09-29T18:23:24;9.88;;;6.15;;
43933;SDS011;59081;42.706;23.306;2022-09-29T18:25:50;8.88;;;5.03;;
43933;SDS011;59081;42.706;23.306;2022-09-29T18:28:17;10.65;;;5.75;;
43933;SDS011;59081;42.706;23.306;2022-09-29T18:30:44;10.77;;;6.78;;
43933;SDS011;59081;42.706;23.306;2022-09-29T18:33:16;14.65;;;9.27;;
43933;SDS011;59081;42.706;23.306;2022-09-29T18:35:58;13.88;;;8.00;;
43933;SDS011;59081;42.706;23.306;2022-09-29T18:38:28;12.73;;;8.07;;